Time;durP1;ratioP1;P1;durP2;ratioP2;P2;SDS_P1;SDS_P2;PMS_P1;PMS_P2;Temp;Humidity;BMP_temperature;BMP_pressure;BME280_temperature;BME280_humidity;BME280_pressure;Samples;Min_cycle;Max_cycle;Signal;HPM_P1;HPM_P2
2023/04/06 00:00:09;;;;;;;13.70;9.03;;;3.30;14.20;;;;;;5036136;28;20558;-64
2023/04/06 00:02:36;;;;;;;11.40;7.90;;;3.20;14.50;;;;;;5038094;28;20492;-64
2023/04/06 00:05:02;;;;;;;14.60;9.17;;;3.20;14.70;;;;;;5043049;28;20998;-64
2023/04/06 00:07:29;;;;;;;10.80;7.73;;;3.20;14.80;;;;;;5044495;28;20998;-64
2023/04/06 00:09:56;;;;;;;12.77;8.13;;;3.10;15.00;;;;;;5038442;28;20517;-64
2023/04/06 00:12:23;;;;;;;13.50;8.40;;;3.10;15.20;;;;;;5041264;28;20474;-64
2023/04/06 00:14:51;;;;;;;15.23;8.80;;;3.00;15.30;;;;;;5048238;28;20462;-64
2023/04/06 00:17:19;;;;;;;10.77;7.90;;;3.00;15.30;;;;;;5036605;28;20490;-64
2023/04/06 00:19:46;;;;;;;11.83;8.33;;;3.00;16.00;;;;;;5040995;28;20474;-64
2023/04/06 00:22:12;;;;;;;12.47;8.63;;;2.90;16.10;;;;;;5035367;28;20469;-64
2023/04/06 00:24:39;;;;;;;11.83;8.67;;;2.90;16.20;;;;;;5046166;28;20498;-64
2023/04/06 00:27:06;;;;;;;12.73;9.90;;;2.80;16.40;;;;;;5045239;28;20504;-64
2023/04/06 00:29:33;;;;;;;13.73;9.53;;;2.80;16.60;;;;;;5040040;28;20873;-64
2023/04/06 00:32:01;;;;;;;15.27;10.27;;;2.70;16.80;;;;;;5038554;28;20825;-64
2023/04/06 00:34:28;;;;;;;14.60;9.47;;;2.70;17.00;;;;;;5043963;28;20964;-64
2023/04/06 00:36:54;;;;;;;15.07;10.83;;;2.70;17.00;;;;;;5043696;28;20470;-64
2023/04/06 00:39:22;;;;;;;14.37;9.83;;;2.60;17.00;;;;;;5039472;28;20466;-64
2023/04/06 00:41:52;;;;;;;12.97;9.70;;;2.60;16.90;;;;;;5042611;28;20466;-64
2023/04/06 00:44:19;;;;;;;15.97;11.53;;;2.60;17.30;;;;;;5042384;28;20478;-64
2023/04/06 00:46:46;;;;;;;18.50;11.00;;;2.50;17.60;;;;;;5038604;28;20481;-64
2023/04/06 00:49:14;;;;;;;15.20;11.63;;;2.50;17.70;;;;;;5039401;28;20475;-64
2023/04/06 00:51:41;;;;;;;15.17;11.37;;;2.40;17.80;;;;;;5039628;28;20473;-64
2023/04/06 00:54:08;;;;;;;18.40;12.50;;;2.40;17.90;;;;;;5037679;28;20455;-64
2023/04/06 00:56:36;;;;;;;17.07;12.50;;;2.40;17.90;;;;;;5044858;28;20465;-64
2023/04/06 00:59:03;;;;;;;20.70;13.23;;;2.40;17.90;;;;;;5039507;28;20478;-64
2023/04/06 01:01:32;;;;;;;18.83;12.37;;;2.40;18.00;;;;;;5042006;28;21198;-64
2023/04/06 01:03:59;;;;;;;17.93;13.43;;;2.40;18.20;;;;;;5035838;28;20485;-64
2023/04/06 01:06:27;;;;;;;17.10;12.47;;;2.50;18.40;;;;;;5038685;28;20472;-64
2023/04/06 01:08:54;;;;;;;16.80;12.70;;;2.40;18.70;;;;;;5042222;28;20490;-64
2023/04/06 01:11:21;;;;;;;17.93;12.63;;;2.40;18.90;;;;;;5039389;28;20488;-64
2023/04/06 01:13:48;;;;;;;20.50;13.07;;;2.40;18.70;;;;;;5041403;28;20473;-64
2023/04/06 01:16:14;;;;;;;19.80;13.57;;;2.40;18.60;;;;;;5042766;28;20458;-64
2023/04/06 01:18:42;;;;;;;19.77;13.77;;;2.40;18.60;;;;;;5044802;28;20485;-65
2023/04/06 01:21:15;;;;;;;20.57;14.17;;;2.40;18.60;;;;;;5044479;28;20470;-64
2023/04/06 01:23:43;;;;;;;16.93;12.77;;;2.40;19.10;;;;;;5040230;28;20907;-64
2023/04/06 01:26:10;;;;;;;19.03;13.53;;;2.40;19.10;;;;;;5040098;28;20466;-64
2023/04/06 01:28:38;;;;;;;17.50;12.20;;;2.30;19.50;;;;;;5035278;28;20487;-64
2023/04/06 01:31:05;;;;;;;20.47;13.20;;;2.30;19.80;;;;;;5037362;28;20470;-64
2023/04/06 01:33:32;;;;;;;18.20;12.87;;;2.30;19.80;;;;;;5040598;28;20470;-64
2023/04/06 01:35:59;;;;;;;17.80;13.17;;;2.20;19.80;;;;;;5043344;28;20462;-64
2023/04/06 01:38:26;;;;;;;17.63;11.23;;;2.20;19.80;;;;;;5041639;28;20491;-64
2023/04/06 01:40:54;;;;;;;17.30;12.57;;;2.10;19.70;;;;;;5037488;28;20520;-64
2023/04/06 01:43:21;;;;;;;19.13;13.07;;;2.10;19.70;;;;;;5037776;28;20463;-64
2023/04/06 01:45:48;;;;;;;20.13;13.00;;;2.10;19.50;;;;;;5039779;28;20496;-64
2023/04/06 01:48:15;;;;;;;20.13;12.97;;;2.10;20.50;;;;;;5039889;28;20847;-64
2023/04/06 01:50:42;;;;;;;15.93;11.80;;;2.10;20.50;;;;;;5037689;28;20490;-64
2023/04/06 01:53:08;;;;;;;17.20;12.33;;;2.10;20.10;;;;;;5039812;28;20470;-64
2023/04/06 01:55:35;;;;;;;17.90;11.60;;;2.20;20.00;;;;;;5039599;28;20470;-64
2023/04/06 01:58:03;;;;;;;15.57;11.80;;;2.10;19.80;;;;;;5036901;28;21035;-64
2023/04/06 02:00:30;;;;;;;16.67;12.30;;;2.00;19.80;;;;;;5041337;28;20821;-64
2023/04/06 02:02:57;;;;;;;14.00;10.37;;;1.90;20.50;;;;;;5042420;28;20536;-64
2023/04/06 02:05:24;;;;;;;16.67;11.23;;;1.80;20.00;;;;;;5038158;28;20486;-64
2023/04/06 02:07:51;;;;;;;19.07;10.97;;;1.70;20.00;;;;;;5040157;28;20508;-64
2023/04/06 02:10:18;;;;;;;15.87;11.10;;;1.60;20.00;;;;;;5038696;28;20527;-64
2023/04/06 02:12:45;;;;;;;20.20;11.07;;;1.60;19.80;;;;;;5044811;28;20497;-64
2023/04/06 02:15:13;;;;;;;17.10;11.53;;;1.60;20.10;;;;;;5040741;28;20950;-64
2023/04/06 02:17:40;;;;;;;14.87;10.77;;;1.50;20.60;;;;;;5040005;28;20486;-65
2023/04/06 02:20:07;;;;;;;20.33;10.90;;;1.50;20.60;;;;;;5039464;28;20462;-64
2023/04/06 02:22:35;;;;;;;16.70;11.67;;;1.40;20.60;;;;;;5044252;28;20466;-64
2023/04/06 02:25:02;;;;;;;18.17;11.00;;;1.40;20.50;;;;;;5041558;28;20572;-64
2023/04/06 02:27:29;;;;;;;16.70;11.70;;;1.40;20.80;;;;;;5043983;28;20510;-64
2023/04/06 02:29:55;;;;;;;19.43;12.13;;;1.30;20.70;;;;;;5046088;28;20528;-64
2023/04/06 02:32:23;;;;;;;20.77;13.40;;;1.40;20.40;;;;;;5043056;28;21110;-64
2023/04/06 02:34:50;;;;;;;19.60;11.83;;;1.40;20.50;;;;;;5037378;28;20955;-64
2023/04/06 02:37:17;;;;;;;16.70;11.20;;;1.50;20.60;;;;;;5042101;28;20474;-64
2023/04/06 02:39:44;;;;;;;20.33;12.30;;;1.50;20.90;;;;;;5037263;28;20494;-65
2023/04/06 02:42:10;;;;;;;14.53;10.80;;;1.50;21.00;;;;;;5044458;28;20571;-64
2023/04/06 02:44:37;;;;;;;16.37;12.53;;;1.60;20.90;;;;;;5046673;28;21006;-64
2023/04/06 02:47:04;;;;;;;15.40;12.53;;;1.60;20.80;;;;;;5039643;28;20494;-64
2023/04/06 02:49:32;;;;;;;15.77;11.10;;;1.60;20.50;;;;;;5048681;28;20531;-64
2023/04/06 02:51:59;;;;;;;20.60;11.53;;;1.70;20.40;;;;;;5047175;28;20458;-64
2023/04/06 02:54:26;;;;;;;15.37;10.80;;;1.70;20.90;;;;;;5046469;28;20469;-64
2023/04/06 02:56:52;;;;;;;18.73;12.00;;;1.70;20.30;;;;;;5044497;28;20807;-64
2023/04/06 02:59:19;;;;;;;18.63;11.40;;;1.60;20.40;;;;;;5038755;28;20840;-64
2023/04/06 03:01:46;;;;;;;17.40;10.70;;;1.50;20.50;;;;;;5042141;28;20485;-64
2023/04/06 03:04:13;;;;;;;15.10;10.80;;;1.40;21.10;;;;;;5039197;28;20462;-64
2023/04/06 03:06:41;;;;;;;14.50;10.47;;;1.40;20.90;;;;;;5043215;28;20476;-64
2023/04/06 03:09:08;;;;;;;14.43;10.70;;;1.30;21.70;;;;;;5045488;28;20458;-64
2023/04/06 03:11:34;;;;;;;15.93;10.00;;;1.30;21.70;;;;;;5042818;28;20465;-64
2023/04/06 03:14:01;;;;;;;15.97;11.80;;;1.30;21.40;;;;;;5045970;28;20486;-64
2023/04/06 03:16:28;;;;;;;17.83;12.27;;;1.20;21.90;;;;;;5035566;28;20454;-64
2023/04/06 03:18:55;;;;;;;17.50;10.80;;;1.20;21.90;;;;;;5042383;28;20492;-64
2023/04/06 03:21:21;;;;;;;17.50;12.23;;;1.20;22.10;;;;;;5045112;28;20497;-64
2023/04/06 03:23:50;;;;;;;18.23;12.07;;;1.20;22.20;;;;;;5038951;28;20458;-64
2023/04/06 03:26:17;;;;;;;18.77;15.53;;;1.10;22.90;;;;;;5041139;28;20494;-64
2023/04/06 03:28:44;;;;;;;14.93;11.23;;;1.10;22.70;;;;;;5047852;28;21039;-64
2023/04/06 03:31:11;;;;;;;20.33;12.60;;;1.10;22.20;;;;;;5041594;28;20481;-64
2023/04/06 03:33:37;;;;;;;15.90;11.77;;;1.10;22.40;;;;;;5041713;28;20967;-64
2023/04/06 03:36:05;;;;;;;19.80;12.03;;;1.00;22.60;;;;;;5038604;28;20458;-64
2023/04/06 03:38:32;;;;;;;17.10;11.83;;;1.00;22.40;;;;;;5038934;28;20489;-64
2023/04/06 03:41:00;;;;;;;15.77;12.17;;;1.00;22.20;;;;;;5038499;28;20461;-64
2023/04/06 03:43:27;;;;;;;16.30;11.53;;;1.00;22.20;;;;;;5044540;28;20466;-64
2023/04/06 03:45:53;;;;;;;19.40;11.77;;;1.00;22.00;;;;;;5039476;28;20478;-64
2023/04/06 03:48:20;;;;;;;18.80;12.03;;;1.00;22.10;;;;;;5044814;28;21791;-64
2023/04/06 03:50:47;;;;;;;18.73;11.50;;;1.00;22.10;;;;;;5036388;28;20474;-64
2023/04/06 03:53:14;;;;;;;17.30;12.13;;;1.00;22.10;;;;;;5043537;28;20488;-64
2023/04/06 03:55:41;;;;;;;17.83;12.47;;;1.00;22.40;;;;;;5040560;28;20465;-64
2023/04/06 03:58:09;;;;;;;18.20;13.03;;;1.00;22.40;;;;;;5041474;28;20528;-64
2023/04/06 04:00:35;;;;;;;17.53;11.50;;;1.10;22.40;;;;;;5036885;28;20512;-64
2023/04/06 04:03:02;;;;;;;28.93;13.67;;;1.00;22.90;;;;;;5043585;28;20458;-64
2023/04/06 04:05:29;;;;;;;17.57;13.43;;;1.00;22.20;;;;;;5039551;28;20486;-64
2023/04/06 04:07:56;;;;;;;18.93;13.27;;;1.00;22.30;;;;;;5043087;28;20479;-64
2023/04/06 04:10:23;;;;;;;19.00;12.77;;;1.00;22.30;;;;;;5036874;28;20477;-64
2023/04/06 04:12:49;;;;;;;17.60;12.33;;;1.00;22.50;;;;;;5038848;28;20756;-64
2023/04/06 04:15:17;;;;;;;20.00;13.90;;;1.00;22.70;;;;;;5039410;28;20466;-64
2023/04/06 04:17:46;;;;;;;20.43;13.30;;;1.10;23.00;;;;;;5040485;28;20487;-64
2023/04/06 04:20:13;;;;;;;17.53;13.10;;;1.10;23.00;;;;;;5046268;28;20486;-64
2023/04/06 04:22:41;;;;;;;19.53;12.93;;;1.20;23.70;;;;;;5041179;28;20473;-64
2023/04/06 04:25:08;;;;;;;19.97;13.17;;;1.20;22.70;;;;;;5040830;28;20489;-64
2023/04/06 04:27:35;;;;;;;18.83;13.30;;;1.20;22.80;;;;;;5043022;28;20495;-64
2023/04/06 04:30:02;;;;;;;21.40;12.83;;;1.10;23.00;;;;;;5041755;28;20538;-65
2023/04/06 04:32:30;;;;;;;18.17;13.10;;;1.20;23.30;;;;;;5042584;28;20846;-64
2023/04/06 04:34:57;;;;;;;21.13;13.53;;;1.10;23.30;;;;;;5041238;28;20458;-64
2023/04/06 04:37:24;;;;;;;18.40;14.20;;;1.10;23.10;;;;;;5038561;28;20486;-64
2023/04/06 04:39:50;;;;;;;18.50;13.70;;;1.10;23.10;;;;;;5042820;28;20520;-64
2023/04/06 04:42:17;;;;;;;20.73;12.83;;;1.10;23.30;;;;;;5040364;28;20474;-64
2023/04/06 04:44:44;;;;;;;21.00;14.30;;;1.10;23.40;;;;;;5043406;28;20470;-64
2023/04/06 04:47:11;;;;;;;21.00;13.93;;;1.10;23.50;;;;;;5045542;28;21190;-64
2023/04/06 04:49:39;;;;;;;21.93;14.53;;;1.00;23.50;;;;;;5042973;28;20470;-64
2023/04/06 04:52:06;;;;;;;17.77;14.03;;;1.10;23.90;;;;;;5042730;28;20872;-64
2023/04/06 04:54:32;;;;;;;19.57;12.80;;;1.00;23.90;;;;;;5037755;28;20469;-64
2023/04/06 04:56:59;;;;;;;20.30;14.23;;;1.00;23.90;;;;;;5050456;22;20487;-65
2023/04/06 04:59:26;;;;;;;21.10;13.93;;;1.00;24.20;;;;;;5010773;28;20469;-64
2023/04/06 05:01:53;;;;;;;17.70;12.03;;;1.00;24.20;;;;;;5014148;28;20470;-65
2023/04/06 05:04:20;;;;;;;18.80;13.50;;;1.00;24.20;;;;;;5006862;28;20467;-64
2023/04/06 05:06:48;;;;;;;20.70;14.03;;;1.00;24.40;;;;;;5009091;28;20475;-65
2023/04/06 05:09:15;;;;;;;21.00;13.03;;;1.00;24.70;;;;;;5007812;28;20499;-65
2023/04/06 05:11:42;;;;;;;18.67;13.10;;;1.00;25.10;;;;;;5007348;28;20907;-64
2023/04/06 05:14:09;;;;;;;27.83;14.23;;;1.10;25.50;;;;;;5002312;28;20468;-64
2023/04/06 05:16:35;;;;;;;17.67;11.90;;;1.20;25.50;;;;;;5003653;28;20459;-64
2023/04/06 05:19:02;;;;;;;17.43;13.93;;;1.40;24.80;;;;;;5007959;28;20494;-64
2023/04/06 05:21:30;;;;;;;18.67;13.90;;;1.70;24.00;;;;;;5013371;28;20468;-65
2023/04/06 05:23:58;;;;;;;19.97;12.87;;;2.10;23.10;;;;;;5009032;28;20872;-65
2023/04/06 05:26:25;;;;;;;23.03;14.50;;;2.60;22.00;;;;;;5001309;28;20490;-64
2023/04/06 05:28:52;;;;;;;21.20;14.30;;;3.10;20.70;;;;;;5000659;28;20492;-64
2023/04/06 05:31:19;;;;;;;18.90;12.50;;;3.50;19.50;;;;;;4998637;28;20471;-64
2023/04/06 05:33:46;;;;;;;20.07;13.70;;;3.80;18.70;;;;;;5003508;28;21022;-65
2023/04/06 05:36:12;;;;;;;20.10;13.13;;;4.10;18.50;;;;;;5003568;28;20464;-64
2023/04/06 05:38:39;;;;;;;18.00;12.73;;;4.40;17.80;;;;;;5008214;28;20494;-64
2023/04/06 05:41:07;;;;;;;16.93;12.27;;;4.80;17.30;;;;;;5008861;22;20491;-64
2023/04/06 05:43:34;;;;;;;19.53;12.27;;;5.10;16.60;;;;;;5017249;28;20464;-64
2023/04/06 05:46:01;;;;;;;18.03;14.90;;;5.30;16.00;;;;;;5027270;28;20478;-64
2023/04/06 05:48:28;;;;;;;19.60;13.13;;;5.50;15.90;;;;;;5027772;28;20958;-64
2023/04/06 05:50:55;;;;;;;18.60;12.00;;;5.60;15.10;;;;;;5021880;28;20486;-64
2023/04/06 05:53:22;;;;;;;14.63;11.90;;;5.60;14.90;;;;;;5024786;28;20912;-64
2023/04/06 05:55:49;;;;;;;16.10;12.33;;;5.90;15.40;;;;;;5022033;28;20466;-64
2023/04/06 05:58:17;;;;;;;17.00;12.27;;;6.10;14.40;;;;;;5024941;28;20467;-64
2023/04/06 06:00:45;;;;;;;14.80;11.33;;;6.40;13.40;;;;;;5016416;28;20483;-64
2023/04/06 06:03:13;;;;;;;16.97;12.17;;;6.70;12.80;;;;;;5023115;28;20459;-66
2023/04/06 06:05:39;;;;;;;24.53;12.53;;;6.80;12.10;;;;;;5021000;28;20483;-65
2023/04/06 06:08:06;;;;;;;19.83;13.03;;;6.70;12.10;;;;;;5024152;28;20469;-64
2023/04/06 06:10:33;;;;;;;17.20;12.00;;;7.00;12.10;;;;;;5023881;28;20566;-64
2023/04/06 06:13:00;;;;;;;15.07;12.20;;;7.30;11.70;;;;;;5022621;28;20478;-65
2023/04/06 06:15:28;;;;;;;16.70;11.30;;;7.70;10.90;;;;;;5022286;28;20481;-64
2023/04/06 06:17:55;;;;;;;16.20;11.53;;;7.90;10.20;;;;;;5024864;28;20486;-64
2023/04/06 06:20:22;;;;;;;16.63;12.57;;;8.70;9.30;;;;;;5026259;28;20463;-64
2023/04/06 06:22:49;;;;;;;15.97;11.53;;;9.50;8.10;;;;;;5027399;28;20463;-63
2023/04/06 06:25:16;;;;;;;16.00;12.50;;;9.90;7.30;;;;;;5028907;28;20513;-64
2023/04/06 06:27:43;;;;;;;16.50;11.40;;;10.50;6.50;;;;;;5025403;28;20463;-65
2023/04/06 06:30:10;;;;;;;18.07;12.50;;;11.80;4.70;;;;;;5018693;28;20459;-64
2023/04/06 06:32:38;;;;;;;15.47;10.80;;;12.80;2.90;;;;;;5025105;28;20546;-64
2023/04/06 06:35:05;;;;;;;17.23;11.70;;;14.30;1.00;;;;;;5022136;28;20488;-65
2023/04/06 06:37:32;;;;;;;16.70;12.63;;;15.60;1.00;;;;;;5020424;28;20462;-66
2023/04/06 06:39:59;;;;;;;15.23;11.40;;;16.20;1.00;;;;;;5021393;28;20472;-65
2023/04/06 06:42:26;;;;;;;16.63;12.43;;;16.90;1.00;;;;;;5023711;28;20491;-65
2023/04/06 06:44:53;;;;;;;15.87;12.20;;;18.00;1.00;;;;;;5023193;28;20466;-64
2023/04/06 06:47:19;;;;;;;16.30;11.00;;;19.30;1.00;;;;;;5024250;28;20487;-66
2023/04/06 06:49:47;;;;;;;14.70;11.60;;;20.40;1.00;;;;;;5023706;28;20464;-65
2023/04/06 06:52:14;;;;;;;15.43;11.00;;;21.50;1.00;;;;;;5013170;28;20495;-67
2023/04/06 06:54:41;;;;;;;14.53;10.93;;;22.20;1.00;;;;;;5014550;28;20477;-68
2023/04/06 06:57:08;;;;;;;16.03;12.57;;;22.90;1.00;;;;;;5030154;28;20462;-66
2023/04/06 06:59:35;;;;;;;14.07;11.20;;;23.70;1.00;;;;;;5017928;28;20534;-66
2023/04/06 07:02:01;;;;;;;14.03;11.77;;;24.60;1.00;;;;;;5018312;28;20991;-67
2023/04/06 07:04:28;;;;;;;14.47;11.40;;;25.10;1.00;;;;;;5025177;28;20467;-67
2023/04/06 07:06:56;;;;;;;12.07;10.77;;;25.90;1.00;;;;;;5018725;28;20890;-67
2023/04/06 07:09:23;;;;;;;12.90;11.30;;;26.90;1.00;;;;;;5015725;28;20475;-68
2023/04/06 07:11:50;;;;;;;12.70;11.27;;;27.80;1.00;;;;;;5024242;28;20498;-67
2023/04/06 07:14:17;;;;;;;12.73;11.43;;;28.40;1.00;;;;;;5023131;28;20468;-68
2023/04/06 07:16:46;;;;;;;14.73;11.23;;;28.80;1.00;;;;;;5023615;28;20947;-67
2023/04/06 07:19:13;;;;;;;14.10;12.60;;;29.30;1.00;;;;;;5020339;28;24541;-69
2023/04/06 07:21:40;;;;;;;13.17;11.77;;;29.60;1.00;;;;;;5016655;28;20496;-68
2023/04/06 07:24:08;;;;;;;13.97;12.47;;;29.80;1.00;;;;;;5006407;28;20471;-69
2023/04/06 07:26:35;;;;;;;13.40;12.00;;;30.00;1.00;;;;;;5019436;28;20574;-68
2023/04/06 07:29:02;;;;;;;13.50;12.10;;;30.40;1.00;;;;;;5016219;28;20471;-67
2023/04/06 07:31:29;;;;;;;15.33;11.93;;;30.90;1.00;;;;;;5018549;28;20486;-68
2023/04/06 07:33:56;;;;;;;14.37;11.90;;;31.50;1.00;;;;;;5012379;28;20467;-68
2023/04/06 07:36:22;;;;;;;13.53;11.80;;;32.10;1.00;;;;;;5030923;28;20467;-69
2023/04/06 07:38:49;;;;;;;14.00;12.50;;;32.30;1.00;;;;;;5036740;28;20473;-69
2023/04/06 07:41:17;;;;;;;13.50;12.10;;;32.60;1.00;;;;;;5032958;28;20489;-69
2023/04/06 07:43:44;;;;;;;13.37;11.97;;;32.90;1.00;;;;;;5022945;28;20473;-69
2023/04/06 07:46:11;;;;;;;14.67;12.67;;;33.20;1.00;;;;;;5016965;28;20479;-68
2023/04/06 07:48:38;;;;;;;12.33;11.13;;;33.60;1.00;;;;;;5017754;28;20471;-68
2023/04/06 07:51:06;;;;;;;15.83;11.30;;;34.00;1.00;;;;;;5016098;28;20490;-67
2023/04/06 07:53:33;;;;;;;12.93;11.80;;;34.30;1.00;;;;;;5016431;28;20481;-66
2023/04/06 07:56:00;;;;;;;12.73;11.37;;;34.70;1.00;;;;;;5022245;28;20460;-66
2023/04/06 07:58:28;;;;;;;12.20;10.60;;;35.10;1.00;;;;;;5018262;28;20464;-68
2023/04/06 08:00:58;;;;;;;12.63;10.03;;;35.40;1.00;;;;;;5019457;28;20477;-68
2023/04/06 08:03:26;;;;;;;11.77;10.57;;;35.70;1.00;;;;;;5020927;28;20531;-69
2023/04/06 08:05:53;;;;;;;11.67;10.00;;;35.70;1.00;;;;;;5026510;28;20555;-68
2023/04/06 08:08:21;;;;;;;11.63;10.43;;;35.90;1.00;;;;;;5019625;28;20524;-68
2023/04/06 08:10:47;;;;;;;11.70;10.30;;;36.00;1.00;;;;;;5023770;28;20763;-69
2023/04/06 08:13:15;;;;;;;11.07;9.87;;;36.30;1.00;;;;;;5024440;28;20473;-68
2023/04/06 08:15:43;;;;;;;11.57;10.10;;;36.50;1.00;;;;;;5020226;28;20501;-66
2023/04/06 08:18:10;;;;;;;12.50;11.40;;;36.90;1.00;;;;;;5018897;28;20455;-69
2023/04/06 08:20:36;;;;;;;11.13;10.03;;;36.90;1.00;;;;;;5017841;28;20459;-68
2023/04/06 08:23:03;;;;;;;11.40;10.20;;;36.90;1.00;;;;;;5025353;28;20470;-69
2023/04/06 08:25:30;;;;;;;12.17;10.37;;;37.00;1.00;;;;;;5027680;28;20470;-69
2023/04/06 08:27:57;;;;;;;12.13;10.93;;;37.00;1.00;;;;;;5016250;28;20487;-66
2023/04/06 08:30:24;;;;;;;11.40;10.20;;;37.00;1.00;;;;;;5025569;28;21022;-68
2023/04/06 08:32:52;;;;;;;12.33;11.13;;;37.20;1.00;;;;;;5023070;28;20484;-67
2023/04/06 08:35:19;;;;;;;11.83;10.73;;;37.60;1.00;;;;;;5022621;28;20467;-70
2023/04/06 08:37:46;;;;;;;12.00;10.80;;;38.00;1.00;;;;;;5027124;28;20462;-70
2023/04/06 08:40:13;;;;;;;10.67;9.50;;;38.30;1.00;;;;;;5027600;28;20463;-68
2023/04/06 08:42:42;;;;;;;13.17;10.50;;;38.70;1.00;;;;;;5028522;28;20498;-70
2023/04/06 08:45:10;;;;;;;11.60;10.40;;;38.80;1.00;;;;;;5037620;28;20527;-70
2023/04/06 08:47:37;;;;;;;12.30;11.10;;;39.20;1.00;;;;;;5048137;28;20478;-69
2023/04/06 08:50:08;;;;;;;12.70;11.07;;;39.40;1.00;;;;;;5045327;28;20456;-67
2023/04/06 08:52:35;;;;;;;11.10;10.00;;;39.60;1.00;;;;;;5044635;28;20496;-68
2023/04/06 08:55:01;;;;;;;12.10;10.90;;;39.80;1.00;;;;;;5047291;28;20467;-67
2023/04/06 08:57:29;;;;;;;11.93;10.73;;;40.20;1.00;;;;;;5049406;28;20555;-69
2023/04/06 08:59:57;;;;;;;11.70;9.57;;;40.60;1.00;;;;;;5050630;28;20467;-69
2023/04/06 09:02:24;;;;;;;11.20;9.97;;;40.70;1.00;;;;;;5023387;28;20802;-69
2023/04/06 09:04:54;;;;;;;12.73;11.33;;;40.80;1.00;;;;;;5026558;28;20467;-67
2023/04/06 09:07:22;;;;;;;11.43;10.23;;;41.00;1.00;;;;;;5019589;28;20479;-68
2023/04/06 09:09:49;;;;;;;11.93;10.73;;;41.00;1.00;;;;;;5022994;28;20463;-69
2023/04/06 09:12:26;;;;;;;12.17;10.93;;;41.40;1.00;;;;;;5020237;28;21126;-68
2023/04/06 09:14:53;;;;;;;18.20;13.23;;;41.40;1.00;;;;;;5024750;28;20474;-68
2023/04/06 09:17:24;;;;;;;13.13;11.60;;;41.00;1.00;;;;;;5024083;28;21002;-68
2023/04/06 09:19:51;;;;;;;11.57;10.37;;;39.60;1.00;;;;;;5024244;28;20499;-68
2023/04/06 09:22:18;;;;;;;14.10;12.50;;;39.40;1.00;;;;;;5021445;28;20486;-68
2023/04/06 09:24:48;;;;;;;12.63;11.30;;;39.70;1.00;;;;;;5023416;28;20462;-68
2023/04/06 09:27:15;;;;;;;12.77;11.53;;;39.90;1.00;;;;;;5023719;28;20507;-68
2023/04/06 09:29:42;;;;;;;14.30;12.50;;;40.40;1.00;;;;;;5024999;28;20466;-68
2023/04/06 09:32:11;;;;;;;12.83;11.53;;;40.80;1.00;;;;;;5019316;28;20483;-68
2023/04/06 09:34:38;;;;;;;13.70;10.30;;;40.90;1.00;;;;;;5024919;28;20474;-68
2023/04/06 09:37:13;;;;;;;12.17;11.00;;;41.10;1.00;;;;;;5018116;28;20467;-68
2023/04/06 09:39:40;;;;;;;12.67;10.60;;;41.20;1.00;;;;;;5024135;28;20455;-68
2023/04/06 09:42:09;;;;;;;12.50;11.00;;;41.60;1.00;;;;;;5026095;28;20495;-68
2023/04/06 09:44:36;;;;;;;11.83;10.63;;;41.90;1.00;;;;;;5025062;28;20550;-68
2023/04/06 09:47:07;;;;;;;12.57;11.27;;;42.30;1.00;;;;;;5019918;28;20490;-68
2023/04/06 09:49:34;;;;;;;12.37;11.17;;;42.30;1.00;;;;;;5021211;28;20469;-68
2023/04/06 09:52:03;;;;;;;11.90;10.70;;;42.40;1.00;;;;;;5015043;28;20487;-68
2023/04/06 09:54:32;;;;;;;11.30;10.23;;;42.50;1.00;;;;;;5025858;28;20471;-69
2023/04/06 09:57:05;;;;;;;12.43;11.03;;;42.30;1.00;;;;;;5021687;28;20831;-68
2023/04/06 09:59:44;;;;;;;11.90;10.67;;;42.40;1.00;;;;;;5025115;28;20466;-68
2023/04/06 10:02:19;;;;;;;10.50;9.50;;;42.30;1.00;;;;;;5027080;28;20475;-68
2023/04/06 10:04:54;;;;;;;11.33;10.23;;;41.90;1.00;;;;;;5018369;28;20597;-68
2023/04/06 10:07:22;;;;;;;9.73;8.73;;;41.70;1.00;;;;;;5023498;28;21028;-68
2023/04/06 10:09:50;;;;;;;10.50;9.00;;;41.80;1.00;;;;;;5024061;28;20465;-68
2023/04/06 10:12:17;;;;;;;11.83;9.63;;;41.60;1.00;;;;;;5020919;28;20486;-68
2023/04/06 10:14:47;;;;;;;11.37;10.03;;;41.80;1.00;;;;;;5019432;28;20593;-68
2023/04/06 10:17:14;;;;;;;9.53;8.63;;;41.90;1.00;;;;;;5027950;28;20450;-68
2023/04/06 10:19:50;;;;;;;11.20;10.10;;;42.10;1.00;;;;;;5028329;28;20466;-68
2023/04/06 10:22:23;;;;;;;9.00;8.10;;;42.30;1.00;;;;;;5018540;28;20492;-68
2023/04/06 10:24:50;;;;;;;11.60;10.27;;;42.50;1.00;;;;;;5021229;28;20811;-69
2023/04/06 10:27:17;;;;;;;10.10;9.10;;;41.80;1.00;;;;;;5026577;28;20838;-69
2023/04/06 10:29:48;;;;;;;13.23;9.13;;;41.70;1.00;;;;;;5019760;28;20502;-69
2023/04/06 10:32:15;;;;;;;10.60;8.80;;;41.90;1.00;;;;;;5022855;28;20579;-69
2023/04/06 10:34:42;;;;;;;9.73;8.37;;;42.20;1.00;;;;;;5013593;28;21004;-69
2023/04/06 10:37:13;;;;;;;10.37;9.00;;;42.20;1.00;;;;;;5021441;28;20463;-68
2023/04/06 10:39:47;;;;;;;10.43;9.33;;;42.00;1.00;;;;;;5022316;28;20966;-69
2023/04/06 10:42:14;;;;;;;9.70;8.70;;;41.60;1.00;;;;;;5027590;28;20494;-68
2023/04/06 10:44:44;;;;;;;9.20;7.80;;;41.10;1.00;;;;;;5025772;28;20900;-68
2023/04/06 10:47:19;;;;;;;10.83;6.70;;;40.70;1.00;;;;;;5024880;28;20490;-68
2023/04/06 10:49:46;;;;;;;9.30;7.60;;;40.30;1.00;;;;;;5024436;28;20462;-69
2023/04/06 10:52:13;;;;;;;7.47;6.20;;;40.20;1.00;;;;;;5024841;28;20499;-68
2023/04/06 10:54:43;;;;;;;8.90;7.20;;;39.50;1.00;;;;;;5039632;28;20493;-68
2023/04/06 10:57:10;;;;;;;8.63;7.07;;;39.10;1.00;;;;;;5042381;28;20450;-68
2023/04/06 10:59:37;;;;;;;8.77;7.03;;;38.60;1.00;;;;;;5028424;28;20482;-67
2023/04/06 11:02:04;;;;;;;8.80;6.20;;;38.20;1.00;;;;;;5019488;28;20479;-68
2023/04/06 11:04:32;;;;;;;9.57;6.50;;;37.50;1.00;;;;;;5022484;28;20463;-68
2023/04/06 11:06:58;;;;;;;10.47;6.63;;;37.00;1.00;;;;;;5019901;28;20462;-68
2023/04/06 11:09:26;;;;;;;8.37;6.87;;;36.70;1.00;;;;;;5023790;28;20463;-68
2023/04/06 11:11:54;;;;;;;8.57;6.73;;;36.10;1.00;;;;;;5018209;28;20540;-67
2023/04/06 11:14:21;;;;;;;8.27;6.63;;;35.50;1.00;;;;;;5023878;28;21319;-68
2023/04/06 11:16:49;;;;;;;7.90;6.90;;;33.90;1.00;;;;;;5020905;28;20466;-68
2023/04/06 11:19:17;;;;;;;9.30;7.90;;;31.90;1.00;;;;;;5020355;28;21045;-68
2023/04/06 11:21:47;;;;;;;10.63;7.77;;;29.70;1.00;;;;;;5023180;28;20537;-67
2023/04/06 11:24:16;;;;;;;10.50;7.70;;;27.80;1.00;;;;;;5022216;28;20529;-68
2023/04/06 11:26:44;;;;;;;10.90;9.00;;;26.30;1.00;;;;;;5025114;28;20600;-68
2023/04/06 11:29:12;;;;;;;9.70;7.53;;;25.20;1.00;;;;;;5022667;28;20479;-68
2023/04/06 11:31:41;;;;;;;11.43;9.10;;;24.30;1.00;;;;;;5012253;28;20597;-67
2023/04/06 11:34:16;;;;;;;10.97;8.60;;;23.40;1.00;;;;;;5015018;28;23944;-68
2023/04/06 11:36:46;;;;;;;14.63;8.37;;;22.60;1.00;;;;;;5017600;28;20485;-69
2023/04/06 11:39:13;;;;;;;10.13;7.20;;;22.10;1.00;;;;;;5017679;28;20545;-68
2023/04/06 11:41:40;;;;;;;11.67;7.23;;;21.50;1.00;;;;;;5016677;28;20863;-68
2023/04/06 11:44:07;;;;;;;8.63;5.70;;;21.00;1.00;;;;;;5019751;28;20460;-68
2023/04/06 11:46:34;;;;;;;12.53;7.00;;;20.50;1.00;;;;;;5013524;28;20460;-68
2023/04/06 11:49:01;;;;;;;10.87;7.50;;;20.00;1.00;;;;;;5013523;28;21036;-68
2023/04/06 11:51:29;;;;;;;11.77;8.07;;;19.60;1.00;;;;;;5015084;28;20896;-67
2023/04/06 11:53:57;;;;;;;12.23;8.30;;;19.20;1.00;;;;;;5016978;28;20489;-68
2023/04/06 11:56:26;;;;;;;17.70;9.80;;;18.90;1.00;;;;;;5015319;28;20468;-68
2023/04/06 11:58:53;;;;;;;10.43;7.80;;;18.70;1.00;;;;;;5018113;28;20470;-67
2023/04/06 12:01:20;;;;;;;11.57;8.70;;;18.60;1.00;;;;;;5016090;28;20479;-67
2023/04/06 12:03:47;;;;;;;12.30;8.20;;;18.30;1.00;;;;;;5019671;28;20473;-67
2023/04/06 12:06:14;;;;;;;11.70;7.90;;;18.10;1.00;;;;;;5021664;28;20583;-68
2023/04/06 12:08:41;;;;;;;9.40;7.00;;;17.90;1.00;;;;;;5012829;28;20491;-68
2023/04/06 12:11:09;;;;;;;9.70;6.70;;;17.70;1.00;;;;;;5013533;28;20479;-67
2023/04/06 12:13:36;;;;;;;10.17;7.60;;;17.50;1.00;;;;;;5022252;28;20469;-68
2023/04/06 12:16:03;;;;;;;12.23;7.93;;;17.40;1.00;;;;;;5012831;28;20470;-68
2023/04/06 12:18:30;;;;;;;10.60;7.47;;;17.20;1.00;;;;;;5026835;28;20454;-67
2023/04/06 12:20:57;;;;;;;10.50;7.17;;;17.00;1.00;;;;;;5019412;28;20474;-67
2023/04/06 12:23:24;;;;;;;9.47;6.87;;;16.90;1.00;;;;;;5019354;28;20478;-67
2023/04/06 12:25:51;;;;;;;9.77;7.10;;;16.70;1.00;;;;;;5014354;28;20481;-67
2023/04/06 12:28:22;;;;;;;8.83;6.77;;;16.60;1.00;;;;;;5019289;28;20479;-68
2023/04/06 12:30:49;;;;;;;9.57;6.90;;;16.40;1.00;;;;;;5020420;28;20482;-67
2023/04/06 12:33:16;;;;;;;10.67;7.60;;;16.40;1.00;;;;;;5024843;28;21036;-67
2023/04/06 12:35:43;;;;;;;12.90;8.60;;;16.10;1.00;;;;;;5015494;28;20478;-68
2023/04/06 12:38:10;;;;;;;10.50;7.10;;;16.10;1.00;;;;;;5017115;28;20491;-66
2023/04/06 12:40:38;;;;;;;9.97;7.37;;;16.00;1.00;;;;;;5016057;28;20467;-68